Αναφορές METAR Αεροδρομίων

 

LGTS - THESSALONIKI - GREECE
Ενημερώθηκε: 25/05/2019 19:50
Αραιές Νεφώσεις
Αραιές Νεφώσεις
 Ανεμος από ΝΝΔ
Ανεμος: ΝΝΔ 19 km/h
Θερμοκρασία: 24°C
Σημείο Δρόσου: 14°C
Υγρασία: 54%
Βαρόμετρο: 1012 hPa
Clouds: Αραιές Νεφώσεις
Visibility: 10 km
Cloud details: Αραιές Νεφώσεις 762 m
2019/05/25 16:50 LGTS 251650Z 21010KT 9999 FEW025 24/14 Q1012 NOSIG
LGLR - LARTISA - GREECE
Ενημερώθηκε: 25/05/2019 19:50
Αραιές Νεφώσεις
Αραιές Νεφώσεις
 Ανεμος από Α
Ανεμος: Α 20 km/h
Θερμοκρασία: 24°C
Σημείο Δρόσου: 9°C
Υγρασία: 39%
Βαρόμετρο: 1012 hPa
Clouds: Αραιές Νεφώσεις
Visibility: 10 km
Cloud details: Αραιές Νεφώσεις 914 m
2019/05/25 16:50 LGLR 251650Z 09011KT 9999 FEW030 24/09 Q1012 RMK SCT180 BLU
 
LGKZ - KOZANI - GREECE
Ενημερώθηκε: 25/05/2019 14:50
NOT Current
Αραιές Νεφώσεις
Αραιές Νεφώσεις
 Ανεμος από calm
Ανεμος: Απνοια
Θερμοκρασία: 22°C
Σημείο Δρόσου: 6°C
Υγρασία: 36%
Βαρόμετρο: 1016 hPa
Clouds: Αραιές Νεφώσεις
Visibility: 10 km
Cloud details: Αραιές Νεφώσεις 762 m
2019/05/25 11:50 LGKZ 251150Z 00000KT 9999 FEW025 22/06 Q1016
LGKV - KAVALA - GREECE
Ενημερώθηκε: 25/05/2019 19:50
Αραιές Νεφώσεις
Αραιές Νεφώσεις
 Ανεμος από ΑΒΑ
Ανεμος: ΑΒΑ 11 km/h
Θερμοκρασία: 21°C
Σημείο Δρόσου: 13°C
Υγρασία: 60%
Βαρόμετρο: 1013 hPa
Clouds: Αραιές Νεφώσεις
Visibility: 10 km
Cloud details: Αραιές Νεφώσεις 762 m
2019/05/25 16:50 LGKV 251650Z 06006KT 9999 FEW025 21/13 Q1013
 
LGIO - IOANNINA - GREECE
Ενημερώθηκε: 25/05/2019 19:50
Αραιές Νεφώσεις
Αραιές Νεφώσεις
 Ανεμος από varies
Ανεμος: varies 0 km/h
Θερμοκρασία: 21°C
Σημείο Δρόσου: 14°C
Υγρασία: 64%
Βαρόμετρο: 1016 hPa
Clouds: Αραιές Νεφώσεις
Visibility: 10 km
Cloud details: Αραιές Νεφώσεις 914 m
2019/05/25 16:50 LGIO 251650Z /////KT 9999 FEW030 21/14 Q1016
LGBL - BOLOS - GREECE
Ενημερώθηκε: 25/05/2019 19:50
Αραιές Νεφώσεις
Αραιές Νεφώσεις
 Ανεμος από ΑΒΑ
Ανεμος: ΑΒΑ 15 km/h
Θερμοκρασία: 22°C
Σημείο Δρόσου: 13°C
Υγρασία: 57%
Βαρόμετρο: 1013 hPa
Clouds: Αραιές Νεφώσεις
Visibility: 10 km
Cloud details: Αραιές Νεφώσεις 914 m
2019/05/25 16:50 LGBL 251650Z 06008KT 9999 FEW030 22/13 Q1013
 
LGMT - MITILINI - GREECE
Ενημερώθηκε: 25/05/2019 19:50
Αραιές Νεφώσεις
Αραιές Νεφώσεις
 Ανεμος από varies
Ανεμος: varies 4 km/h
Θερμοκρασία: 25°C
Σημείο Δρόσου: 13°C
Υγρασία: 47%
Βαρόμετρο: 1014 hPa
Clouds: Αραιές Νεφώσεις
Visibility: 10 km
Cloud details: Αραιές Νεφώσεις 610 m
2019/05/25 16:50 LGMT 251650Z VRB02KT 9999 FEW020 25/13 Q1014
LGAV - ATHENS - GREECE
Ενημερώθηκε: 25/05/2019 19:50
Αίθριος
Αίθριος
 Ανεμος από ΝΔ
Ανεμος: ΝΔ 15 km/h
Θερμοκρασία: 22°C
Σημείο Δρόσου: 12°C
Υγρασία: 53%
Βαρόμετρο: 1015 hPa
Περίληψη: Αίθριος
Visibility: greater than 10 km
2019/05/25 16:50 LGAV 251650Z 22008KT CAVOK 22/12 Q1015 NOSIG
 
LGRP - RODOS - GREECE
Ενημερώθηκε: 25/05/2019 19:50
Αίθριος
Αίθριος
 Ανεμος από ΔΝΔ
Ανεμος: ΔΝΔ 28 km/h
Θερμοκρασία: 22°C
Σημείο Δρόσου: 15°C
Υγρασία: 65%
Βαρόμετρο: 1013 hPa
Περίληψη: Αίθριος
Visibility: greater than 10 km
2019/05/25 16:50 LGRP 251650Z 24015KT CAVOK 22/15 Q1013 NOSIG
LGIR - HRAKLIO/KRITI - GREECE
Ενημερώθηκε: 25/05/2019 19:50
Αραιές Νεφώσεις
Αραιές Νεφώσεις
 Ανεμος από Β
Ανεμος: Β 7 km/h
Θερμοκρασία: 20°C
Σημείο Δρόσου: 18°C
Υγρασία: 88%
Βαρόμετρο: 1015 hPa
Clouds: Αραιές Νεφώσεις
Visibility: 10 km
Cloud details: Αραιές Νεφώσεις 914 m
2019/05/25 16:50 LGIR 251650Z 35004KT 9999 FEW030 20/18 Q1015 NOSIG
 
LGMK - MIKONOS - GREECE
Ενημερώθηκε: 25/05/2019 19:50
Αίθριος
Αίθριος
 Ανεμος από varies
Ανεμος: varies 6 km/h
Θερμοκρασία: 23°C
Σημείο Δρόσου: 10°C
Υγρασία: 44%
Βαρόμετρο: 1014 hPa
Περίληψη: Αίθριος
Visibility: greater than 10 km
2019/05/25 16:50 LGMK 251650Z VRB03KT CAVOK 23/10 Q1014
LGKR - KERKIRA - GREECE
Ενημερώθηκε: 25/05/2019 19:50
Αραιές Νεφώσεις
Αραιές Νεφώσεις
 Ανεμος από varies
Ανεμος: varies 6 km/h
Θερμοκρασία: 23°C
Σημείο Δρόσου: 16°C
Υγρασία: 65%
Βαρόμετρο: 1015 hPa
Clouds: Αραιές Νεφώσεις
Visibility: 10 km
Cloud details: Αραιές Νεφώσεις 914 m
2019/05/25 16:50 LGKR 251650Z VRB03KT 9999 FEW030 23/16 Q1015 NOSIG